sensor_id;sensor_type;location;lat;lon;timestamp;P1;durP1;ratioP1;P2;durP2;ratioP2
54849;SDS011;47660;51.334;12.396;2023-03-16T00:01:36;2.03;;;0.80;;
54849;SDS011;47660;51.334;12.396;2023-03-16T00:04:02;1.10;;;0.90;;
54849;SDS011;47660;51.334;12.396;2023-03-16T00:06:30;3.97;;;2.00;;
54849;SDS011;47660;51.334;12.396;2023-03-16T00:09:02;5.38;;;1.65;;
54849;SDS011;47660;51.334;12.396;2023-03-16T00:11:28;1.95;;;1.63;;
54849;SDS011;47660;51.334;12.396;2023-03-16T00:13:54;1.42;;;1.10;;
54849;SDS011;47660;51.334;12.396;2023-03-16T00:16:19;1.38;;;1.08;;
54849;SDS011;47660;51.334;12.396;2023-03-16T00:18:49;2.13;;;1.05;;
54849;SDS011;47660;51.334;12.396;2023-03-16T00:21:15;3.70;;;1.98;;
54849;SDS011;47660;51.334;12.396;2023-03-16T00:23:40;4.38;;;1.02;;
54849;SDS011;47660;51.334;12.396;2023-03-16T00:26:08;1.40;;;1.30;;
54849;SDS011;47660;51.334;12.396;2023-03-16T00:28:34;1.02;;;0.90;;
54849;SDS011;47660;51.334;12.396;2023-03-16T00:31:01;1.83;;;1.13;;
54849;SDS011;47660;51.334;12.396;2023-03-16T00:33:28;1.73;;;1.17;;
54849;SDS011;47660;51.334;12.396;2023-03-16T00:35:54;5.97;;;1.83;;
54849;SDS011;47660;51.334;12.396;2023-03-16T00:38:30;2.83;;;1.55;;
54849;SDS011;47660;51.334;12.396;2023-03-16T00:40:58;3.90;;;0.85;;
54849;SDS011;47660;51.334;12.396;2023-03-16T00:43:28;2.75;;;1.20;;
54849;SDS011;47660;51.334;12.396;2023-03-16T00:46:05;3.38;;;1.33;;
54849;SDS011;47660;51.334;12.396;2023-03-16T00:48:35;1.00;;;0.98;;
54849;SDS011;47660;51.334;12.396;2023-03-16T00:51:02;1.85;;;0.88;;
54849;SDS011;47660;51.334;12.396;2023-03-16T00:53:33;1.63;;;1.05;;
54849;SDS011;47660;51.334;12.396;2023-03-16T00:56:00;2.03;;;0.90;;
54849;SDS011;47660;51.334;12.396;2023-03-16T00:58:34;7.43;;;1.52;;
54849;SDS011;47660;51.334;12.396;2023-03-16T01:01:07;3.42;;;1.17;;
54849;SDS011;47660;51.334;12.396;2023-03-16T01:03:37;4.97;;;1.05;;
54849;SDS011;47660;51.334;12.396;2023-03-16T01:06:04;1.20;;;0.63;;
54849;SDS011;47660;51.334;12.396;2023-03-16T01:08:30;6.32;;;1.17;;
54849;SDS011;47660;51.334;12.396;2023-03-16T01:11:00;3.13;;;1.40;;
54849;SDS011;47660;51.334;12.396;2023-03-16T01:13:34;1.40;;;0.93;;
54849;SDS011;47660;51.334;12.396;2023-03-16T01:16:03;3.50;;;1.23;;
54849;SDS011;47660;51.334;12.396;2023-03-16T01:18:29;2.08;;;1.17;;
54849;SDS011;47660;51.334;12.396;2023-03-16T01:21:00;1.98;;;1.25;;
54849;SDS011;47660;51.334;12.396;2023-03-16T01:23:27;3.10;;;1.02;;
54849;SDS011;47660;51.334;12.396;2023-03-16T01:25:56;2.42;;;1.20;;
54849;SDS011;47660;51.334;12.396;2023-03-16T01:28:24;2.05;;;1.20;;
54849;SDS011;47660;51.334;12.396;2023-03-16T01:30:51;1.05;;;0.85;;
54849;SDS011;47660;51.334;12.396;2023-03-16T01:33:26;5.38;;;1.42;;
54849;SDS011;47660;51.334;12.396;2023-03-16T01:35:52;1.92;;;0.90;;
54849;SDS011;47660;51.334;12.396;2023-03-16T01:38:22;3.60;;;1.20;;
54849;SDS011;47660;51.334;12.396;2023-03-16T01:40:49;1.90;;;1.17;;
54849;SDS011;47660;51.334;12.396;2023-03-16T01:43:15;1.95;;;1.17;;
54849;SDS011;47660;51.334;12.396;2023-03-16T01:45:54;1.52;;;1.15;;
54849;SDS011;47660;51.334;12.396;2023-03-16T01:51:06;0.68;;;0.68;;
54849;SDS011;47660;51.334;12.396;2023-03-16T01:54:30;2.30;;;0.93;;
54849;SDS011;47660;51.334;12.396;2023-03-16T02:02:58;0.80;;;0.70;;
54849;SDS011;47660;51.334;12.396;2023-03-16T02:05:36;0.98;;;0.90;;
54849;SDS011;47660;51.334;12.396;2023-03-16T02:08:07;1.17;;;0.63;;
54849;SDS011;47660;51.334;12.396;2023-03-16T02:10:33;1.67;;;1.10;;
54849;SDS011;47660;51.334;12.396;2023-03-16T02:13:03;2.05;;;1.35;;
54849;SDS011;47660;51.334;12.396;2023-03-16T02:15:31;1.75;;;1.20;;
54849;SDS011;47660;51.334;12.396;2023-03-16T02:17:56;7.15;;;1.80;;
54849;SDS011;47660;51.334;12.396;2023-03-16T02:23:02;2.25;;;1.02;;
54849;SDS011;47660;51.334;12.396;2023-03-16T02:25:40;3.72;;;1.50;;
54849;SDS011;47660;51.334;12.396;2023-03-16T02:31:12;2.25;;;1.20;;
54849;SDS011;47660;51.334;12.396;2023-03-16T02:33:39;1.17;;;1.08;;
54849;SDS011;47660;51.334;12.396;2023-03-16T02:36:06;0.90;;;0.90;;
54849;SDS011;47660;51.334;12.396;2023-03-16T02:38:31;1.52;;;0.80;;
54849;SDS011;47660;51.334;12.396;2023-03-16T02:40:59;9.43;;;1.38;;
54849;SDS011;47660;51.334;12.396;2023-03-16T02:43:34;1.17;;;1.08;;
54849;SDS011;47660;51.334;12.396;2023-03-16T02:46:04;2.92;;;1.80;;
54849;SDS011;47660;51.334;12.396;2023-03-16T02:48:42;3.80;;;1.35;;
54849;SDS011;47660;51.334;12.396;2023-03-16T02:51:09;5.28;;;1.45;;
54849;SDS011;47660;51.334;12.396;2023-03-16T02:53:35;8.35;;;1.25;;
54849;SDS011;47660;51.334;12.396;2023-03-16T02:56:03;3.30;;;1.05;;
54849;SDS011;47660;51.334;12.396;2023-03-16T02:58:28;3.13;;;2.20;;
54849;SDS011;47660;51.334;12.396;2023-03-16T03:00:54;1.95;;;1.45;;
54849;SDS011;47660;51.334;12.396;2023-03-16T03:03:20;3.30;;;1.38;;
54849;SDS011;47660;51.334;12.396;2023-03-16T03:05:46;9.85;;;1.73;;
54849;SDS011;47660;51.334;12.396;2023-03-16T03:08:12;1.92;;;1.33;;
54849;SDS011;47660;51.334;12.396;2023-03-16T03:10:38;3.42;;;1.52;;
54849;SDS011;47660;51.334;12.396;2023-03-16T03:13:04;1.45;;;1.30;;
54849;SDS011;47660;51.334;12.396;2023-03-16T03:15:31;1.92;;;1.40;;
54849;SDS011;47660;51.334;12.396;2023-03-16T03:17:59;2.00;;;1.55;;
54849;SDS011;47660;51.334;12.396;2023-03-16T03:20:25;6.40;;;2.03;;
54849;SDS011;47660;51.334;12.396;2023-03-16T03:22:51;2.08;;;1.45;;
54849;SDS011;47660;51.334;12.396;2023-03-16T03:25:19;4.22;;;1.92;;
54849;SDS011;47660;51.334;12.396;2023-03-16T03:27:48;3.85;;;1.48;;
54849;SDS011;47660;51.334;12.396;2023-03-16T03:30:16;2.65;;;1.40;;
54849;SDS011;47660;51.334;12.396;2023-03-16T03:32:46;1.45;;;1.35;;
54849;SDS011;47660;51.334;12.396;2023-03-16T03:35:13;2.70;;;1.55;;
54849;SDS011;47660;51.334;12.396;2023-03-16T03:37:40;2.22;;;1.27;;
54849;SDS011;47660;51.334;12.396;2023-03-16T03:40:07;3.03;;;1.25;;
54849;SDS011;47660;51.334;12.396;2023-03-16T03:42:37;2.78;;;1.88;;
54849;SDS011;47660;51.334;12.396;2023-03-16T03:45:09;2.10;;;1.50;;
54849;SDS011;47660;51.334;12.396;2023-03-16T03:47:37;6.68;;;1.10;;
54849;SDS011;47660;51.334;12.396;2023-03-16T03:50:03;1.10;;;1.02;;
54849;SDS011;47660;51.334;12.396;2023-03-16T03:52:29;1.95;;;1.40;;
54849;SDS011;47660;51.334;12.396;2023-03-16T03:54:54;1.85;;;1.35;;
54849;SDS011;47660;51.334;12.396;2023-03-16T03:57:20;7.03;;;2.42;;
54849;SDS011;47660;51.334;12.396;2023-03-16T03:59:45;2.92;;;1.50;;
54849;SDS011;47660;51.334;12.396;2023-03-16T04:02:13;5.95;;;1.83;;
54849;SDS011;47660;51.334;12.396;2023-03-16T04:04:42;2.65;;;1.35;;
54849;SDS011;47660;51.334;12.396;2023-03-16T04:07:10;2.38;;;1.40;;
54849;SDS011;47660;51.334;12.396;2023-03-16T04:09:36;3.15;;;1.60;;
54849;SDS011;47660;51.334;12.396;2023-03-16T04:12:02;3.85;;;1.35;;
54849;SDS011;47660;51.334;12.396;2023-03-16T04:14:29;3.17;;;1.23;;
54849;SDS011;47660;51.334;12.396;2023-03-16T04:16:58;1.92;;;1.58;;
54849;SDS011;47660;51.334;12.396;2023-03-16T04:19:24;1.50;;;1.27;;
54849;SDS011;47660;51.334;12.396;2023-03-16T04:21:52;2.53;;;1.25;;
54849;SDS011;47660;51.334;12.396;2023-03-16T04:24:18;1.77;;;1.67;;
54849;SDS011;47660;51.334;12.396;2023-03-16T04:26:44;4.38;;;1.85;;
54849;SDS011;47660;51.334;12.396;2023-03-16T04:29:10;4.47;;;1.67;;
54849;SDS011;47660;51.334;12.396;2023-03-16T04:31:49;3.35;;;1.40;;
54849;SDS011;47660;51.334;12.396;2023-03-16T04:34:15;3.28;;;1.40;;
54849;SDS011;47660;51.334;12.396;2023-03-16T04:36:40;2.92;;;1.80;;
54849;SDS011;47660;51.334;12.396;2023-03-16T04:39:06;3.65;;;1.52;;
54849;SDS011;47660;51.334;12.396;2023-03-16T04:41:32;2.53;;;1.67;;
54849;SDS011;47660;51.334;12.396;2023-03-16T04:43:58;3.35;;;1.88;;
54849;SDS011;47660;51.334;12.396;2023-03-16T04:46:24;5.35;;;1.90;;
54849;SDS011;47660;51.334;12.396;2023-03-16T04:48:50;2.00;;;1.42;;
54849;SDS011;47660;51.334;12.396;2023-03-16T04:51:16;2.40;;;1.73;;
54849;SDS011;47660;51.334;12.396;2023-03-16T04:53:41;3.70;;;1.95;;
54849;SDS011;47660;51.334;12.396;2023-03-16T04:56:08;4.47;;;1.17;;
54849;SDS011;47660;51.334;12.396;2023-03-16T04:58:42;2.03;;;1.60;;
54849;SDS011;47660;51.334;12.396;2023-03-16T05:01:07;1.85;;;1.35;;
54849;SDS011;47660;51.334;12.396;2023-03-16T05:05:58;3.65;;;1.58;;
54849;SDS011;47660;51.334;12.396;2023-03-16T05:08:26;1.30;;;1.08;;
54849;SDS011;47660;51.334;12.396;2023-03-16T05:10:55;3.97;;;2.15;;
54849;SDS011;47660;51.334;12.396;2023-03-16T05:13:21;2.00;;;1.45;;
54849;SDS011;47660;51.334;12.396;2023-03-16T05:15:46;1.92;;;1.27;;
54849;SDS011;47660;51.334;12.396;2023-03-16T05:18:12;2.30;;;1.23;;
54849;SDS011;47660;51.334;12.396;2023-03-16T05:20:37;3.17;;;2.05;;
54849;SDS011;47660;51.334;12.396;2023-03-16T05:23:03;3.53;;;1.65;;
54849;SDS011;47660;51.334;12.396;2023-03-16T05:25:29;7.72;;;1.90;;
54849;SDS011;47660;51.334;12.396;2023-03-16T05:27:56;2.08;;;1.67;;
54849;SDS011;47660;51.334;12.396;2023-03-16T05:30:22;3.50;;;2.05;;
54849;SDS011;47660;51.334;12.396;2023-03-16T05:32:47;2.42;;;1.25;;
54849;SDS011;47660;51.334;12.396;2023-03-16T05:35:13;2.72;;;1.58;;
54849;SDS011;47660;51.334;12.396;2023-03-16T05:37:39;3.67;;;2.25;;
54849;SDS011;47660;51.334;12.396;2023-03-16T05:40:06;3.28;;;1.80;;
54849;SDS011;47660;51.334;12.396;2023-03-16T05:42:38;4.95;;;1.60;;
54849;SDS011;47660;51.334;12.396;2023-03-16T05:45:04;1.70;;;1.38;;
54849;SDS011;47660;51.334;12.396;2023-03-16T05:47:30;2.67;;;1.20;;
54849;SDS011;47660;51.334;12.396;2023-03-16T05:49:58;1.70;;;1.42;;
54849;SDS011;47660;51.334;12.396;2023-03-16T05:52:24;4.57;;;2.20;;
54849;SDS011;47660;51.334;12.396;2023-03-16T05:54:49;8.63;;;2.15;;
54849;SDS011;47660;51.334;12.396;2023-03-16T05:57:14;2.58;;;1.60;;
54849;SDS011;47660;51.334;12.396;2023-03-16T05:59:43;1.55;;;1.40;;
54849;SDS011;47660;51.334;12.396;2023-03-16T06:02:08;3.90;;;2.00;;
54849;SDS011;47660;51.334;12.396;2023-03-16T06:04:35;3.05;;;1.58;;
54849;SDS011;47660;51.334;12.396;2023-03-16T06:07:03;1.58;;;1.45;;
54849;SDS011;47660;51.334;12.396;2023-03-16T06:09:28;8.63;;;2.03;;
54849;SDS011;47660;51.334;12.396;2023-03-16T06:11:54;5.15;;;1.95;;
54849;SDS011;47660;51.334;12.396;2023-03-16T06:16:47;3.05;;;2.63;;
54849;SDS011;47660;51.334;12.396;2023-03-16T06:19:13;7.28;;;2.70;;
54849;SDS011;47660;51.334;12.396;2023-03-16T06:21:39;2.28;;;1.83;;
54849;SDS011;47660;51.334;12.396;2023-03-16T06:26:31;1.92;;;1.70;;
54849;SDS011;47660;51.334;12.396;2023-03-16T06:28:57;2.42;;;1.45;;
54849;SDS011;47660;51.334;12.396;2023-03-16T06:31:22;3.45;;;2.45;;
54849;SDS011;47660;51.334;12.396;2023-03-16T06:33:47;4.15;;;1.80;;
54849;SDS011;47660;51.334;12.396;2023-03-16T06:36:13;5.50;;;2.03;;
54849;SDS011;47660;51.334;12.396;2023-03-16T06:38:38;3.55;;;2.03;;
54849;SDS011;47660;51.334;12.396;2023-03-16T06:41:07;3.20;;;1.67;;
54849;SDS011;47660;51.334;12.396;2023-03-16T06:43:35;2.80;;;1.83;;
54849;SDS011;47660;51.334;12.396;2023-03-16T06:46:01;4.72;;;2.03;;
54849;SDS011;47660;51.334;12.396;2023-03-16T06:48:27;4.95;;;2.47;;
54849;SDS011;47660;51.334;12.396;2023-03-16T06:50:55;6.97;;;2.47;;
54849;SDS011;47660;51.334;12.396;2023-03-16T06:53:23;5.22;;;2.40;;
54849;SDS011;47660;51.334;12.396;2023-03-16T06:55:49;2.15;;;1.75;;
54849;SDS011;47660;51.334;12.396;2023-03-16T06:58:16;6.22;;;1.90;;
54849;SDS011;47660;51.334;12.396;2023-03-16T07:00:42;4.15;;;2.50;;
54849;SDS011;47660;51.334;12.396;2023-03-16T07:03:09;1.90;;;1.25;;
54849;SDS011;47660;51.334;12.396;2023-03-16T07:05:35;4.88;;;1.80;;
54849;SDS011;47660;51.334;12.396;2023-03-16T07:08:00;3.45;;;1.55;;
54849;SDS011;47660;51.334;12.396;2023-03-16T07:10:26;3.72;;;2.00;;
54849;SDS011;47660;51.334;12.396;2023-03-16T07:12:54;2.28;;;1.58;;
54849;SDS011;47660;51.334;12.396;2023-03-16T07:15:22;6.10;;;2.03;;
54849;SDS011;47660;51.334;12.396;2023-03-16T07:17:50;3.20;;;1.75;;
54849;SDS011;47660;51.334;12.396;2023-03-16T07:20:19;2.65;;;1.95;;
54849;SDS011;47660;51.334;12.396;2023-03-16T07:22:45;3.05;;;2.28;;
54849;SDS011;47660;51.334;12.396;2023-03-16T07:25:11;4.07;;;2.25;;
54849;SDS011;47660;51.334;12.396;2023-03-16T07:27:37;4.50;;;2.10;;
54849;SDS011;47660;51.334;12.396;2023-03-16T07:30:05;6.20;;;2.03;;
54849;SDS011;47660;51.334;12.396;2023-03-16T07:32:36;5.00;;;1.85;;
54849;SDS011;47660;51.334;12.396;2023-03-16T07:35:04;4.82;;;2.35;;
54849;SDS011;47660;51.334;12.396;2023-03-16T07:37:30;7.63;;;2.10;;
54849;SDS011;47660;51.334;12.396;2023-03-16T07:39:56;3.65;;;1.90;;
54849;SDS011;47660;51.334;12.396;2023-03-16T07:42:21;3.45;;;1.98;;
54849;SDS011;47660;51.334;12.396;2023-03-16T07:44:47;5.65;;;2.10;;
54849;SDS011;47660;51.334;12.396;2023-03-16T07:47:12;3.47;;;1.45;;
54849;SDS011;47660;51.334;12.396;2023-03-16T07:49:40;2.30;;;1.80;;
54849;SDS011;47660;51.334;12.396;2023-03-16T07:52:08;3.97;;;2.00;;
54849;SDS011;47660;51.334;12.396;2023-03-16T07:54:38;5.93;;;2.28;;
54849;SDS011;47660;51.334;12.396;2023-03-16T07:57:07;5.40;;;2.35;;
54849;SDS011;47660;51.334;12.396;2023-03-16T07:59:35;5.78;;;2.20;;
54849;SDS011;47660;51.334;12.396;2023-03-16T08:02:02;3.90;;;2.38;;
54849;SDS011;47660;51.334;12.396;2023-03-16T08:04:28;8.40;;;2.80;;
54849;SDS011;47660;51.334;12.396;2023-03-16T08:06:56;3.17;;;1.92;;
54849;SDS011;47660;51.334;12.396;2023-03-16T08:09:24;4.95;;;1.85;;
54849;SDS011;47660;51.334;12.396;2023-03-16T08:11:51;3.08;;;1.75;;
54849;SDS011;47660;51.334;12.396;2023-03-16T08:14:16;9.07;;;2.05;;
54849;SDS011;47660;51.334;12.396;2023-03-16T08:16:42;2.78;;;1.60;;
54849;SDS011;47660;51.334;12.396;2023-03-16T08:19:09;4.65;;;2.10;;
54849;SDS011;47660;51.334;12.396;2023-03-16T08:21:38;2.60;;;1.52;;
54849;SDS011;47660;51.334;12.396;2023-03-16T08:24:05;5.50;;;2.25;;
54849;SDS011;47660;51.334;12.396;2023-03-16T08:26:33;5.10;;;1.70;;
54849;SDS011;47660;51.334;12.396;2023-03-16T08:29:04;5.35;;;2.22;;
54849;SDS011;47660;51.334;12.396;2023-03-16T08:31:29;3.28;;;1.95;;
54849;SDS011;47660;51.334;12.396;2023-03-16T08:33:58;2.53;;;1.40;;
54849;SDS011;47660;51.334;12.396;2023-03-16T08:36:25;1.67;;;0.95;;
54849;SDS011;47660;51.334;12.396;2023-03-16T08:38:52;2.17;;;1.48;;
54849;SDS011;47660;51.334;12.396;2023-03-16T08:41:19;5.22;;;1.70;;
54849;SDS011;47660;51.334;12.396;2023-03-16T08:43:47;1.45;;;0.98;;
54849;SDS011;47660;51.334;12.396;2023-03-16T08:46:16;1.73;;;1.23;;
54849;SDS011;47660;51.334;12.396;2023-03-16T08:48:41;4.13;;;1.40;;
54849;SDS011;47660;51.334;12.396;2023-03-16T08:51:07;2.50;;;1.63;;
54849;SDS011;47660;51.334;12.396;2023-03-16T08:53:35;6.22;;;1.30;;
54849;SDS011;47660;51.334;12.396;2023-03-16T08:56:01;2.35;;;1.58;;
54849;SDS011;47660;51.334;12.396;2023-03-16T08:58:28;1.77;;;1.25;;
54849;SDS011;47660;51.334;12.396;2023-03-16T09:00:56;1.98;;;1.20;;
54849;SDS011;47660;51.334;12.396;2023-03-16T09:03:21;3.75;;;1.40;;
54849;SDS011;47660;51.334;12.396;2023-03-16T09:05:47;0.90;;;0.80;;
54849;SDS011;47660;51.334;12.396;2023-03-16T09:08:13;1.77;;;1.15;;
54849;SDS011;47660;51.334;12.396;2023-03-16T09:10:38;1.80;;;0.93;;
54849;SDS011;47660;51.334;12.396;2023-03-16T09:13:04;3.95;;;0.90;;
54849;SDS011;47660;51.334;12.396;2023-03-16T09:15:29;6.03;;;1.05;;
54849;SDS011;47660;51.334;12.396;2023-03-16T09:17:55;3.10;;;1.08;;
54849;SDS011;47660;51.334;12.396;2023-03-16T09:20:22;3.50;;;1.67;;
54849;SDS011;47660;51.334;12.396;2023-03-16T09:22:47;1.77;;;1.15;;
54849;SDS011;47660;51.334;12.396;2023-03-16T09:25:13;4.40;;;1.45;;
54849;SDS011;47660;51.334;12.396;2023-03-16T09:27:43;4.78;;;1.38;;
54849;SDS011;47660;51.334;12.396;2023-03-16T09:30:09;2.03;;;0.70;;
54849;SDS011;47660;51.334;12.396;2023-03-16T09:32:37;5.47;;;0.70;;
54849;SDS011;47660;51.334;12.396;2023-03-16T09:35:03;2.88;;;0.98;;
54849;SDS011;47660;51.334;12.396;2023-03-16T09:37:32;6.85;;;1.02;;
54849;SDS011;47660;51.334;12.396;2023-03-16T09:39:58;1.73;;;0.70;;
54849;SDS011;47660;51.334;12.396;2023-03-16T09:46:08;3.40;;;0.50;;
54849;SDS011;47660;51.334;12.396;2023-03-16T09:48:03;3.15;;;0.85;;
54849;SDS011;47660;51.334;12.396;2023-03-16T09:50:33;2.22;;;1.05;;
54849;SDS011;47660;51.334;12.396;2023-03-16T09:53:44;1.17;;;0.60;;
54849;SDS011;47660;51.334;12.396;2023-03-16T09:56:02;0.65;;;0.55;;
54849;SDS011;47660;51.334;12.396;2023-03-16T10:05:25;2.05;;;0.80;;
54849;SDS011;47660;51.334;12.396;2023-03-16T10:16:15;1.77;;;0.90;;
54849;SDS011;47660;51.334;12.396;2023-03-16T10:18:50;1.48;;;0.60;;
54849;SDS011;47660;51.334;12.396;2023-03-16T10:21:23;2.78;;;0.98;;
54849;SDS011;47660;51.334;12.396;2023-03-16T10:23:48;3.90;;;0.73;;
54849;SDS011;47660;51.334;12.396;2023-03-16T10:26:21;3.03;;;1.02;;
54849;SDS011;47660;51.334;12.396;2023-03-16T10:28:53;2.35;;;0.75;;
54849;SDS011;47660;51.334;12.396;2023-03-16T10:31:19;3.42;;;0.77;;
54849;SDS011;47660;51.334;12.396;2023-03-16T10:33:53;6.55;;;0.70;;
54849;SDS011;47660;51.334;12.396;2023-03-16T10:38:58;0.43;;;0.43;;
54849;SDS011;47660;51.334;12.396;2023-03-16T10:41:35;1.27;;;0.60;;
54849;SDS011;47660;51.334;12.396;2023-03-16T10:46:46;1.00;;;0.55;;
54849;SDS011;47660;51.334;12.396;2023-03-16T10:49:26;2.55;;;0.60;;
54849;SDS011;47660;51.334;12.396;2023-03-16T10:51:57;1.85;;;1.02;;
54849;SDS011;47660;51.334;12.396;2023-03-16T10:54:31;4.05;;;1.17;;
54849;SDS011;47660;51.334;12.396;2023-03-16T10:56:59;1.80;;;0.52;;
54849;SDS011;47660;51.334;12.396;2023-03-16T10:59:37;2.55;;;0.70;;
54849;SDS011;47660;51.334;12.396;2023-03-16T11:02:14;2.50;;;0.70;;
54849;SDS011;47660;51.334;12.396;2023-03-16T11:04:47;0.60;;;0.47;;
54849;SDS011;47660;51.334;12.396;2023-03-16T11:07:17;0.88;;;0.68;;
54849;SDS011;47660;51.334;12.396;2023-03-16T11:09:44;1.23;;;0.75;;
54849;SDS011;47660;51.334;12.396;2023-03-16T11:12:45;0.65;;;0.55;;
54849;SDS011;47660;51.334;12.396;2023-03-16T11:15:12;1.48;;;1.35;;
54849;SDS011;47660;51.334;12.396;2023-03-16T11:17:41;1.15;;;0.85;;
54849;SDS011;47660;51.334;12.396;2023-03-16T11:20:13;3.13;;;1.30;;
54849;SDS011;47660;51.334;12.396;2023-03-16T11:22:43;2.47;;;0.82;;
54849;SDS011;47660;51.334;12.396;2023-03-16T11:25:17;1.50;;;0.80;;
54849;SDS011;47660;51.334;12.396;2023-03-16T11:33:15;2.40;;;0.60;;
54849;SDS011;47660;51.334;12.396;2023-03-16T11:41:25;0.95;;;0.52;;
54849;SDS011;47660;51.334;12.396;2023-03-16T11:44:11;4.22;;;1.38;;
54849;SDS011;47660;51.334;12.396;2023-03-16T11:47:02;3.10;;;0.47;;
54849;SDS011;47660;51.334;12.396;2023-03-16T11:49:54;0.75;;;0.50;;
54849;SDS011;47660;51.334;12.396;2023-03-16T11:52:40;1.02;;;0.45;;
54849;SDS011;47660;51.334;12.396;2023-03-16T11:57:46;2.67;;;0.90;;
54849;SDS011;47660;51.334;12.396;2023-03-16T12:13:55;2.35;;;0.70;;
54849;SDS011;47660;51.334;12.396;2023-03-16T12:24:42;1.10;;;0.70;;
54849;SDS011;47660;51.334;12.396;2023-03-16T12:27:13;1.38;;;0.55;;
54849;SDS011;47660;51.334;12.396;2023-03-16T12:29:44;2.30;;;1.00;;
54849;SDS011;47660;51.334;12.396;2023-03-16T12:37:58;2.33;;;0.70;;
54849;SDS011;47660;51.334;12.396;2023-03-16T12:49:20;1.13;;;0.60;;
54849;SDS011;47660;51.334;12.396;2023-03-16T12:51:56;4.53;;;0.68;;
54849;SDS011;47660;51.334;12.396;2023-03-16T12:54:26;1.13;;;0.65;;
54849;SDS011;47660;51.334;12.396;2023-03-16T12:59:34;2.47;;;0.80;;
54849;SDS011;47660;51.334;12.396;2023-03-16T13:02:02;1.55;;;0.88;;
54849;SDS011;47660;51.334;12.396;2023-03-16T13:04:40;5.70;;;0.95;;
54849;SDS011;47660;51.334;12.396;2023-03-16T13:07:13;3.30;;;0.60;;
54849;SDS011;47660;51.334;12.396;2023-03-16T13:09:46;0.70;;;0.40;;
54849;SDS011;47660;51.334;12.396;2023-03-16T13:12:25;2.40;;;0.90;;
54849;SDS011;47660;51.334;12.396;2023-03-16T13:15:01;0.80;;;0.60;;
54849;SDS011;47660;51.334;12.396;2023-03-16T13:17:41;1.60;;;0.47;;
54849;SDS011;47660;51.334;12.396;2023-03-16T13:20:26;0.82;;;0.47;;
54849;SDS011;47660;51.334;12.396;2023-03-16T13:26:04;4.40;;;1.10;;
54849;SDS011;47660;51.334;12.396;2023-03-16T13:28:31;1.70;;;0.60;;
54849;SDS011;47660;51.334;12.396;2023-03-16T13:31:00;0.70;;;0.50;;
54849;SDS011;47660;51.334;12.396;2023-03-16T13:33:27;3.15;;;0.47;;
54849;SDS011;47660;51.334;12.396;2023-03-16T13:35:57;1.35;;;0.38;;
54849;SDS011;47660;51.334;12.396;2023-03-16T13:38:24;1.38;;;0.45;;
54849;SDS011;47660;51.334;12.396;2023-03-16T13:40:56;2.35;;;0.50;;
54849;SDS011;47660;51.334;12.396;2023-03-16T13:43:45;1.63;;;0.73;;
54849;SDS011;47660;51.334;12.396;2023-03-16T13:46:17;2.03;;;0.50;;
54849;SDS011;47660;51.334;12.396;2023-03-16T13:48:46;3.55;;;0.75;;
54849;SDS011;47660;51.334;12.396;2023-03-16T13:51:16;2.83;;;0.70;;
54849;SDS011;47660;51.334;12.396;2023-03-16T13:53:45;0.90;;;0.60;;
54849;SDS011;47660;51.334;12.396;2023-03-16T13:56:12;1.50;;;0.60;;
54849;SDS011;47660;51.334;12.396;2023-03-16T13:58:42;0.93;;;0.60;;
54849;SDS011;47660;51.334;12.396;2023-03-16T14:01:27;2.92;;;0.57;;
54849;SDS011;47660;51.334;12.396;2023-03-16T14:03:58;1.95;;;0.95;;
54849;SDS011;47660;51.334;12.396;2023-03-16T14:06:33;1.42;;;0.63;;
54849;SDS011;47660;51.334;12.396;2023-03-16T14:09:01;0.85;;;0.57;;
54849;SDS011;47660;51.334;12.396;2023-03-16T14:11:53;1.88;;;0.60;;
54849;SDS011;47660;51.334;12.396;2023-03-16T14:14:35;0.70;;;0.70;;
54849;SDS011;47660;51.334;12.396;2023-03-16T14:19:50;2.83;;;0.57;;
54849;SDS011;47660;51.334;12.396;2023-03-16T14:22:53;0.88;;;0.57;;
54849;SDS011;47660;51.334;12.396;2023-03-16T14:25:17;2.13;;;0.80;;
54849;SDS011;47660;51.334;12.396;2023-03-16T14:27:46;1.75;;;0.88;;
54849;SDS011;47660;51.334;12.396;2023-03-16T14:32:38;1.17;;;0.50;;
54849;SDS011;47660;51.334;12.396;2023-03-16T14:35:16;2.72;;;0.98;;
54849;SDS011;47660;51.334;12.396;2023-03-16T14:37:47;2.10;;;0.80;;
54849;SDS011;47660;51.334;12.396;2023-03-16T14:42:45;2.00;;;0.95;;
54849;SDS011;47660;51.334;12.396;2023-03-16T14:45:11;2.08;;;0.73;;
54849;SDS011;47660;51.334;12.396;2023-03-16T14:47:43;2.97;;;0.82;;
54849;SDS011;47660;51.334;12.396;2023-03-16T14:50:17;0.98;;;0.60;;
54849;SDS011;47660;51.334;12.396;2023-03-16T14:52:47;1.58;;;0.70;;
54849;SDS011;47660;51.334;12.396;2023-03-16T14:55:18;3.15;;;0.90;;
54849;SDS011;47660;51.334;12.396;2023-03-16T14:57:44;1.65;;;0.60;;
54849;SDS011;47660;51.334;12.396;2023-03-16T15:00:14;1.05;;;0.82;;
54849;SDS011;47660;51.334;12.396;2023-03-16T15:02:41;2.45;;;1.23;;
54849;SDS011;47660;51.334;12.396;2023-03-16T15:05:10;2.33;;;0.70;;
54849;SDS011;47660;51.334;12.396;2023-03-16T15:07:46;2.15;;;0.85;;
54849;SDS011;47660;51.334;12.396;2023-03-16T15:10:27;1.83;;;0.88;;
54849;SDS011;47660;51.334;12.396;2023-03-16T15:12:57;2.40;;;0.98;;
54849;SDS011;47660;51.334;12.396;2023-03-16T15:15:50;1.38;;;0.70;;
54849;SDS011;47660;51.334;12.396;2023-03-16T15:18:18;1.77;;;0.85;;
54849;SDS011;47660;51.334;12.396;2023-03-16T15:20:45;2.03;;;0.80;;
54849;SDS011;47660;51.334;12.396;2023-03-16T15:23:14;1.42;;;0.75;;
54849;SDS011;47660;51.334;12.396;2023-03-16T15:25:41;3.25;;;0.95;;
54849;SDS011;47660;51.334;12.396;2023-03-16T15:28:17;1.27;;;0.68;;
54849;SDS011;47660;51.334;12.396;2023-03-16T15:30:45;2.22;;;0.73;;
54849;SDS011;47660;51.334;12.396;2023-03-16T15:33:11;1.33;;;0.63;;
54849;SDS011;47660;51.334;12.396;2023-03-16T15:35:40;3.55;;;1.98;;
54849;SDS011;47660;51.334;12.396;2023-03-16T15:38:10;2.88;;;1.13;;
54849;SDS011;47660;51.334;12.396;2023-03-16T15:40:57;3.10;;;0.80;;
54849;SDS011;47660;51.334;12.396;2023-03-16T15:43:24;0.60;;;0.60;;
54849;SDS011;47660;51.334;12.396;2023-03-16T15:45:51;1.55;;;0.60;;
54849;SDS011;47660;51.334;12.396;2023-03-16T15:48:19;0.60;;;0.50;;
54849;SDS011;47660;51.334;12.396;2023-03-16T15:50:58;0.43;;;0.40;;
54849;SDS011;47660;51.334;12.396;2023-03-16T15:56:10;2.10;;;0.90;;
54849;SDS011;47660;51.334;12.396;2023-03-16T15:58:41;0.52;;;0.40;;
54849;SDS011;47660;51.334;12.396;2023-03-16T16:01:16;0.63;;;0.45;;
54849;SDS011;47660;51.334;12.396;2023-03-16T16:06:12;1.03;;;0.50;;
54849;SDS011;47660;51.334;12.396;2023-03-16T16:08:38;3.30;;;0.60;;
54849;SDS011;47660;51.334;12.396;2023-03-16T16:11:05;1.52;;;0.57;;
54849;SDS011;47660;51.334;12.396;2023-03-16T16:13:39;0.70;;;0.47;;
54849;SDS011;47660;51.334;12.396;2023-03-16T16:16:09;3.05;;;0.63;;
54849;SDS011;47660;51.334;12.396;2023-03-16T16:18:39;1.85;;;0.75;;
54849;SDS011;47660;51.334;12.396;2023-03-16T16:21:06;1.73;;;0.55;;
54849;SDS011;47660;51.334;12.396;2023-03-16T16:23:38;0.75;;;0.47;;
54849;SDS011;47660;51.334;12.396;2023-03-16T16:26:06;1.48;;;0.60;;
54849;SDS011;47660;51.334;12.396;2023-03-16T16:28:41;4.38;;;0.60;;
54849;SDS011;47660;51.334;12.396;2023-03-16T16:31:10;1.95;;;0.73;;
54849;SDS011;47660;51.334;12.396;2023-03-16T16:33:37;1.75;;;0.90;;
54849;SDS011;47660;51.334;12.396;2023-03-16T16:36:06;1.45;;;0.50;;
54849;SDS011;47660;51.334;12.396;2023-03-16T16:38:36;1.95;;;0.90;;
54849;SDS011;47660;51.334;12.396;2023-03-16T16:41:05;1.98;;;0.75;;